Perla, Arkansas
Current Conditions -  °F | °C
As of 3:53 PM on Thursday 18 Dec 2014 (Local Time) from KHOT Reporting Station
Overcast Overcast  
Wind Chill: 42°   Ceiling: 900
Heat Index: 44°   Visibility: 10mi
Dew Point: 40°   Wind: 5mph
Humidity: 85%   Direction: 70°ENE
Pressure: 30.16"   Gusts: NA
Location:  34.3189°N, 92.8629°W
Report Text: KHOT 182153Z AUTO 07004KT 10SM OVC009 07/04 A3016 RMK AO2 SLP214 T00670044
Loading
Personal Weather Stations






























Interactive Weather Map New forecast layout! Learn more

10-Day Weather Forecast

Advertisements
Track Severe Weather on mobile